METAR Data

Data at: 0705 UTC 28 Sep 2022

METAR for:KAUG (Augusta/State Arpt, ME, US)
Text:KAUG 280653Z AUTO 00000KT 9SM CLR 10/09 A2988 RMK AO2 SLP118 T01000089
Temperature: 10.0°C ( 50°F)
Dewpoint: 8.9°C ( 48°F) [RH = 93%]
Pressure (altimeter):29.88 inches Hg (1011.9 mb) [Sea level pressure: 1011.8 mb]
Winds:calm
Visibility: 9 sm ( 14 km)
Ceiling:at least 12,000 feet AGL
Clouds:sky clear below 12,000 feet AGL
QC Flag:automated observation with no human augmentation